createdAt,value
2022-12-22T00:01:57.121Z,8.60
2022-12-22T00:04:43.050Z,8.70
2022-12-22T00:07:28.563Z,8.90
2022-12-22T00:10:14.134Z,8.80
2022-12-22T00:12:59.507Z,8.90
2022-12-22T00:15:50.193Z,8.60
2022-12-22T00:18:35.756Z,8.70
2022-12-22T00:21:21.218Z,8.70
2022-12-22T00:24:06.792Z,8.60
2022-12-22T00:26:54.502Z,8.60
2022-12-22T00:29:40.689Z,8.60
2022-12-22T00:32:32.534Z,8.50
2022-12-22T00:35:19.067Z,8.40
2022-12-22T00:38:04.504Z,8.50
2022-12-22T00:40:49.976Z,8.60
2022-12-22T00:43:35.497Z,8.50
2022-12-22T00:46:22.599Z,8.70
2022-12-22T00:49:09.570Z,8.50
2022-12-22T00:51:55.169Z,8.60
2022-12-22T00:54:42.033Z,8.70
2022-12-22T00:57:35.808Z,8.70
2022-12-22T01:00:24.253Z,8.60
2022-12-22T01:03:09.854Z,8.70
2022-12-22T01:05:56.825Z,8.70
2022-12-22T01:08:42.438Z,8.90
2022-12-22T01:11:28.029Z,8.80
2022-12-22T01:14:13.403Z,8.70
2022-12-22T01:16:58.861Z,8.80
2022-12-22T01:19:44.222Z,8.90
2022-12-22T01:22:31.680Z,9.00
2022-12-22T01:25:17.256Z,9.10
2022-12-22T01:28:02.715Z,9.00
2022-12-22T01:30:48.439Z,9.10
2022-12-22T01:33:34.213Z,9.20
2022-12-22T01:36:19.641Z,9.10
2022-12-22T01:39:06.486Z,9.20
2022-12-22T01:41:51.964Z,9.10
2022-12-22T01:44:37.238Z,9.00
2022-12-22T01:47:52.465Z,9.00
2022-12-22T01:50:45.474Z,9.10
2022-12-22T01:53:38.283Z,9.20
2022-12-22T01:56:26.256Z,9.20
2022-12-22T01:59:16.226Z,9.10
2022-12-22T02:02:03.591Z,9.00
2022-12-22T02:04:52.973Z,9.00
2022-12-22T02:08:03.436Z,9.00
2022-12-22T02:11:18.246Z,9.00
2022-12-22T02:14:24.745Z,9.10
2022-12-22T02:17:21.523Z,9.10
2022-12-22T02:20:34.057Z,9.00
2022-12-22T02:23:28.998Z,8.90
2022-12-22T02:26:22.339Z,8.90
2022-12-22T02:29:11.032Z,9.00
2022-12-22T02:31:58.604Z,8.90
2022-12-22T02:34:44.246Z,9.00
2022-12-22T02:37:38.346Z,9.20
2022-12-22T02:40:41.133Z,9.10
2022-12-22T02:43:42.927Z,9.20
2022-12-22T02:46:46.995Z,9.00
2022-12-22T02:49:38.517Z,9.10
2022-12-22T02:52:32.565Z,9.20
2022-12-22T02:55:18.486Z,9.40
2022-12-22T02:58:04.344Z,9.20
2022-12-22T03:00:49.839Z,9.20
2022-12-22T03:03:37.538Z,9.20
2022-12-22T03:06:23.710Z,9.30
2022-12-22T03:09:09.361Z,9.20
2022-12-22T03:11:55.286Z,9.10
2022-12-22T03:14:40.871Z,9.10
2022-12-22T03:17:26.387Z,9.30
2022-12-22T03:20:13.383Z,9.50
2022-12-22T03:22:58.672Z,9.40
2022-12-22T03:25:44.016Z,9.20
2022-12-22T03:28:12.437Z,9.30
2022-12-22T03:30:40.696Z,9.40
2022-12-22T03:33:08.902Z,9.50
2022-12-22T03:35:38.316Z,9.50
2022-12-22T03:38:06.369Z,9.40
2022-12-22T03:40:34.505Z,9.40
2022-12-22T03:43:19.931Z,9.40
2022-12-22T03:46:05.498Z,9.30
2022-12-22T03:48:33.566Z,9.30
2022-12-22T03:51:02.982Z,9.10
2022-12-22T03:53:30.999Z,9.40
2022-12-22T03:56:05.706Z,9.30
2022-12-22T03:58:35.725Z,9.40
2022-12-22T04:01:08.645Z,9.50
2022-12-22T04:03:36.808Z,9.50
2022-12-22T04:06:06.295Z,9.50
2022-12-22T04:08:34.368Z,9.50
2022-12-22T04:11:20.024Z,9.50
2022-12-22T04:13:47.986Z,9.50
2022-12-22T04:16:16.035Z,9.60
2022-12-22T04:18:44.067Z,9.30
2022-12-22T04:21:13.482Z,9.40
2022-12-22T04:23:41.832Z,9.50
2022-12-22T04:26:10.227Z,9.50
2022-12-22T04:28:38.442Z,9.60
2022-12-22T04:31:06.642Z,9.50
2022-12-22T04:33:34.609Z,9.60
2022-12-22T04:36:02.647Z,9.60
2022-12-22T04:38:32.051Z,9.50
2022-12-22T04:41:00.078Z,9.50
2022-12-22T04:43:28.311Z,9.50
2022-12-22T04:45:59.403Z,9.40
2022-12-22T04:48:29.495Z,9.50
2022-12-22T04:51:00.367Z,9.50
2022-12-22T04:53:31.311Z,9.60
2022-12-22T04:56:01.594Z,9.60
2022-12-22T04:58:30.028Z,9.60
2022-12-22T05:00:58.535Z,9.70
2022-12-22T05:03:26.731Z,9.70
2022-12-22T05:05:54.732Z,9.90
2022-12-22T05:08:22.754Z,9.80
2022-12-22T05:10:52.117Z,9.80
2022-12-22T05:13:20.132Z,9.90
2022-12-22T05:15:48.133Z,9.90
2022-12-22T05:18:16.109Z,9.90
2022-12-22T05:20:44.092Z,10.00
2022-12-22T05:23:12.766Z,9.90
2022-12-22T05:25:40.773Z,10.10
2022-12-22T05:28:10.068Z,10.10
2022-12-22T05:30:38.054Z,10.30
2022-12-22T05:33:06.158Z,10.20
2022-12-22T05:35:34.156Z,10.20
2022-12-22T05:38:02.163Z,10.10
2022-12-22T05:40:30.285Z,10.20
2022-12-22T05:42:58.306Z,10.30
2022-12-22T05:45:27.662Z,10.20
2022-12-22T05:47:55.872Z,10.30
2022-12-22T05:50:25.960Z,10.40
2022-12-22T05:52:56.955Z,10.30
2022-12-22T05:55:25.048Z,10.40
2022-12-22T05:57:53.155Z,10.40
2022-12-22T06:00:22.866Z,10.30
2022-12-22T06:02:52.290Z,10.20
2022-12-22T06:05:20.541Z,10.40
2022-12-22T06:07:48.551Z,10.40
2022-12-22T06:10:17.250Z,10.40
2022-12-22T06:12:45.294Z,10.40
2022-12-22T06:15:15.205Z,10.30
2022-12-22T06:17:45.051Z,10.40
2022-12-22T06:20:15.642Z,10.30
2022-12-22T06:22:43.718Z,10.40
2022-12-22T06:25:17.669Z,10.30
2022-12-22T06:27:47.158Z,10.30
2022-12-22T06:30:16.203Z,10.40
2022-12-22T06:32:44.391Z,10.20
2022-12-22T06:35:13.952Z,10.20
2022-12-22T06:37:42.088Z,10.30
2022-12-22T06:40:11.752Z,10.30
2022-12-22T06:43:02.127Z,10.40
2022-12-22T06:45:33.966Z,10.60
2022-12-22T06:48:01.993Z,10.60
2022-12-22T06:50:31.330Z,10.60
2022-12-22T06:52:59.451Z,10.70
2022-12-22T06:55:27.490Z,10.70
2022-12-22T06:57:55.975Z,10.50
2022-12-22T07:00:24.912Z,10.60
2022-12-22T07:02:55.209Z,10.80
2022-12-22T07:05:24.474Z,10.70
2022-12-22T07:07:54.335Z,10.80
2022-12-22T07:10:42.510Z,10.90
2022-12-22T07:13:24.083Z,10.90
2022-12-22T07:16:00.022Z,10.90
2022-12-22T07:18:30.249Z,11.00
2022-12-22T07:20:58.502Z,10.90
2022-12-22T07:23:27.918Z,11.00
2022-12-22T07:25:55.900Z,11.00
2022-12-22T07:28:24.329Z,11.00
2022-12-22T07:30:54.218Z,11.00
2022-12-22T07:33:22.308Z,11.20
2022-12-22T07:36:01.768Z,11.20
2022-12-22T07:38:33.799Z,11.20
2022-12-22T07:41:05.328Z,11.30
2022-12-22T07:43:32.910Z,11.30
2022-12-22T07:46:01.673Z,11.20
2022-12-22T07:48:49.461Z,11.10
2022-12-22T07:51:17.528Z,11.10
2022-12-22T07:53:46.835Z,11.00
2022-12-22T07:56:14.826Z,11.10
2022-12-22T07:58:42.924Z,11.10
2022-12-22T08:01:10.994Z,11.10
2022-12-22T08:03:39.020Z,11.00
2022-12-22T08:06:08.459Z,10.90
2022-12-22T08:08:36.593Z,11.00
2022-12-22T08:11:06.721Z,11.00
2022-12-22T08:13:35.209Z,11.00
2022-12-22T08:16:09.058Z,11.10
2022-12-22T08:18:38.613Z,11.00
2022-12-22T08:21:08.915Z,11.10
2022-12-22T08:23:37.845Z,11.20
2022-12-22T08:26:11.173Z,11.10
2022-12-22T08:28:43.759Z,11.30
2022-12-22T08:31:12.011Z,11.10
2022-12-22T08:33:40.126Z,11.20
2022-12-22T08:36:11.991Z,11.20
2022-12-22T08:38:42.361Z,11.10
2022-12-22T08:41:14.048Z,11.30
2022-12-22T08:43:42.467Z,11.10
2022-12-22T08:46:11.471Z,11.10
2022-12-22T08:48:39.456Z,11.20
2022-12-22T08:51:07.809Z,11.10
2022-12-22T08:54:06.734Z,11.20
2022-12-22T08:56:25.582Z,11.00
2022-12-22T08:58:53.568Z,11.00
2022-12-22T09:01:23.890Z,10.90
2022-12-22T09:03:52.379Z,10.90
2022-12-22T09:06:27.210Z,11.00
2022-12-22T09:08:56.749Z,10.90
2022-12-22T09:11:26.850Z,10.90
2022-12-22T09:13:57.116Z,10.90
2022-12-22T09:16:26.643Z,11.00
2022-12-22T09:18:55.543Z,11.00
2022-12-22T09:21:24.482Z,11.00
2022-12-22T09:23:52.848Z,11.10
2022-12-22T09:26:23.952Z,11.10
2022-12-22T09:28:54.005Z,11.10
2022-12-22T09:31:24.115Z,11.10
2022-12-22T09:33:52.372Z,11.20
2022-12-22T09:36:22.995Z,11.20
2022-12-22T09:38:51.355Z,11.10
2022-12-22T09:41:24.438Z,11.20
2022-12-22T09:43:56.953Z,11.30
2022-12-22T09:46:27.771Z,11.40
2022-12-22T09:48:56.580Z,11.30
2022-12-22T09:51:27.454Z,11.30
2022-12-22T09:53:59.589Z,11.40
2022-12-22T09:56:30.033Z,11.30
2022-12-22T09:59:01.451Z,11.30
2022-12-22T10:01:48.650Z,11.40
2022-12-22T10:04:27.905Z,11.30
2022-12-22T10:07:03.538Z,11.50
2022-12-22T10:09:49.429Z,11.60
2022-12-22T10:12:21.862Z,11.70
2022-12-22T10:14:53.647Z,11.90
2022-12-22T10:17:25.513Z,12.20
2022-12-22T10:19:55.922Z,12.40
2022-12-22T10:22:30.860Z,12.40
2022-12-22T10:24:59.760Z,12.50
2022-12-22T10:27:32.290Z,12.50
2022-12-22T10:30:26.143Z,12.30
2022-12-22T10:33:04.963Z,12.30
2022-12-22T10:35:47.547Z,12.30
2022-12-22T10:38:27.257Z,12.40
2022-12-22T10:41:02.481Z,12.50
2022-12-22T10:43:34.283Z,12.60
2022-12-22T10:46:05.557Z,12.40
2022-12-22T10:48:37.715Z,12.40
2022-12-22T10:51:08.757Z,12.20
2022-12-22T10:53:49.864Z,12.30
2022-12-22T10:56:26.504Z,12.30
2022-12-22T10:58:57.031Z,12.50
2022-12-22T11:01:31.553Z,12.80
2022-12-22T11:04:17.122Z,12.80
2022-12-22T11:06:46.082Z,12.80
2022-12-22T11:09:33.320Z,12.80
2022-12-22T11:12:13.675Z,12.90
2022-12-22T11:14:54.295Z,12.90
2022-12-22T11:17:34.327Z,13.00
2022-12-22T11:20:32.154Z,12.80
2022-12-22T11:23:05.816Z,12.80
2022-12-22T11:25:43.302Z,12.90
2022-12-22T11:28:32.073Z,13.10
2022-12-22T11:31:26.345Z,13.20
2022-12-22T11:34:20.628Z,13.10
2022-12-22T11:37:04.832Z,12.80
2022-12-22T11:39:47.582Z,12.60
2022-12-22T11:42:39.711Z,12.40
2022-12-22T11:45:26.314Z,12.50
2022-12-22T11:48:03.965Z,12.50
2022-12-22T11:50:58.890Z,12.50
2022-12-22T11:53:54.798Z,12.40
2022-12-22T11:56:25.667Z,12.40
2022-12-22T11:59:21.963Z,12.20
2022-12-22T12:02:42.409Z,11.90
2022-12-22T12:05:31.483Z,12.10
2022-12-22T12:08:14.243Z,12.00
2022-12-22T12:10:48.535Z,12.20
2022-12-22T12:13:34.753Z,12.20
2022-12-22T12:16:14.959Z,11.90
2022-12-22T12:19:26.298Z,12.10
2022-12-22T12:21:58.757Z,12.00
2022-12-22T12:24:53.498Z,12.10
2022-12-22T12:27:39.153Z,12.30
2022-12-22T12:33:09.409Z,12.10
2022-12-22T12:35:53.083Z,12.10
2022-12-22T12:39:06.171Z,12.30
2022-12-22T12:41:31.378Z,12.50
2022-12-22T12:44:02.805Z,12.70
2022-12-22T12:47:06.885Z,12.60
2022-12-22T12:49:56.962Z,12.70
2022-12-22T12:53:17.094Z,12.50
2022-12-22T12:56:05.385Z,12.60
2022-12-22T12:58:55.365Z,12.70
2022-12-22T13:02:00.777Z,12.80
2022-12-22T13:05:28.451Z,12.60
2022-12-22T13:08:17.774Z,12.70
2022-12-22T13:11:52.188Z,12.60
2022-12-22T13:14:12.767Z,12.40
2022-12-22T13:16:41.251Z,12.40
2022-12-22T13:19:28.119Z,12.50
2022-12-22T13:21:57.935Z,12.60
2022-12-22T13:24:32.101Z,12.70
2022-12-22T13:27:06.691Z,12.80
2022-12-22T13:29:47.840Z,12.70
2022-12-22T13:32:28.459Z,12.70
2022-12-22T13:37:57.351Z,12.70
2022-12-22T13:40:30.666Z,12.60
2022-12-22T13:43:03.768Z,12.50
2022-12-22T13:45:38.321Z,12.10
2022-12-22T13:48:13.493Z,12.30
2022-12-22T13:50:46.741Z,12.10
2022-12-22T13:53:58.672Z,12.00
2022-12-22T13:56:14.903Z,12.00
2022-12-22T13:58:45.970Z,12.00
2022-12-22T14:01:21.130Z,11.60
2022-12-22T14:04:01.737Z,11.80
2022-12-22T14:06:35.690Z,12.00
2022-12-22T14:09:15.449Z,11.90
2022-12-22T14:11:51.663Z,12.00
2022-12-22T14:14:25.743Z,12.00
2022-12-22T14:16:58.332Z,11.90
2022-12-22T14:19:29.284Z,11.80
2022-12-22T14:22:06.104Z,11.80
2022-12-22T14:24:43.154Z,11.80
2022-12-22T14:27:22.716Z,11.80
2022-12-22T14:29:51.893Z,11.90
2022-12-22T14:32:41.186Z,11.80
2022-12-22T14:35:31.137Z,11.60
2022-12-22T14:38:22.121Z,11.90
2022-12-22T14:40:56.495Z,12.00
2022-12-22T14:43:29.665Z,11.90
2022-12-22T14:46:07.623Z,12.10
2022-12-22T14:48:40.329Z,11.70
2022-12-22T14:51:08.879Z,11.80
2022-12-22T14:53:45.803Z,11.90
2022-12-22T14:56:14.953Z,12.00
2022-12-22T14:58:44.539Z,11.80
2022-12-22T15:01:30.550Z,11.70
2022-12-22T15:04:04.120Z,11.60
2022-12-22T15:06:39.115Z,11.70
2022-12-22T15:10:12.626Z,11.60
2022-12-22T15:12:19.067Z,11.60
2022-12-22T15:14:49.204Z,11.50
2022-12-22T15:17:23.488Z,11.40
2022-12-22T15:19:57.658Z,11.40
2022-12-22T15:22:25.710Z,11.40
2022-12-22T15:24:53.763Z,11.30
2022-12-22T15:27:21.807Z,11.30
2022-12-22T15:29:49.801Z,11.40
2022-12-22T15:32:17.832Z,11.30
2022-12-22T15:34:45.851Z,11.10
2022-12-22T15:37:15.229Z,11.00
2022-12-22T15:39:43.477Z,11.00
2022-12-22T15:42:11.545Z,10.90
2022-12-22T15:44:39.611Z,10.80
2022-12-22T15:47:10.411Z,10.70
2022-12-22T15:49:38.582Z,10.50
2022-12-22T15:52:08.173Z,10.50
2022-12-22T15:54:37.843Z,10.40
2022-12-22T15:57:06.136Z,10.60
2022-12-22T15:59:34.218Z,10.50
2022-12-22T16:02:02.676Z,10.40
2022-12-22T16:04:30.812Z,10.40
2022-12-22T16:07:00.580Z,10.50
2022-12-22T16:09:32.517Z,10.40
2022-12-22T16:12:01.969Z,10.60
2022-12-22T16:14:36.863Z,10.50
2022-12-22T16:17:07.473Z,10.40
2022-12-22T16:19:35.649Z,10.50
2022-12-22T16:22:04.019Z,10.50
2022-12-22T16:24:36.340Z,10.30
2022-12-22T16:27:06.407Z,10.30
2022-12-22T16:29:34.757Z,10.20
2022-12-22T16:32:18.605Z,10.30
2022-12-22T16:34:46.813Z,10.30
2022-12-22T16:37:15.221Z,10.10
2022-12-22T16:39:43.325Z,10.00
2022-12-22T16:45:04.383Z,10.10
2022-12-22T16:47:36.784Z,10.00
2022-12-22T16:50:11.041Z,10.30
2022-12-22T16:52:42.514Z,10.20
2022-12-22T16:55:17.397Z,10.20
2022-12-22T16:57:47.583Z,10.30
2022-12-22T17:00:19.789Z,10.10
2022-12-22T17:02:55.326Z,10.00
2022-12-22T17:05:29.809Z,10.00
2022-12-22T17:08:02.915Z,10.00
2022-12-22T17:10:33.135Z,10.20
2022-12-22T17:13:04.668Z,10.10
2022-12-22T17:15:33.778Z,10.00
2022-12-22T17:18:03.590Z,9.90
2022-12-22T17:20:34.478Z,9.90
2022-12-22T17:23:04.135Z,9.90
2022-12-22T17:25:32.790Z,9.90
2022-12-22T17:28:04.260Z,9.90
2022-12-22T17:30:32.303Z,9.80
2022-12-22T17:33:00.295Z,9.80
2022-12-22T17:35:28.933Z,9.80
2022-12-22T17:37:57.964Z,9.80
2022-12-22T17:40:31.427Z,9.80
2022-12-22T17:43:01.145Z,9.80
2022-12-22T17:45:30.591Z,9.80
2022-12-22T17:47:59.146Z,9.70
2022-12-22T17:50:28.581Z,9.80
2022-12-22T17:52:57.575Z,9.90
2022-12-22T17:56:05.987Z,9.80
2022-12-22T17:58:18.315Z,9.90
2022-12-22T18:00:47.933Z,9.80
2022-12-22T18:03:16.668Z,9.80
2022-12-22T18:05:48.149Z,9.80
2022-12-22T18:08:20.440Z,9.70
2022-12-22T18:10:49.636Z,9.80
2022-12-22T18:13:22.353Z,10.00
2022-12-22T18:15:53.142Z,10.10
2022-12-22T18:18:22.018Z,9.90
2022-12-22T18:21:05.757Z,10.00
2022-12-22T18:23:35.901Z,10.00
2022-12-22T18:26:06.114Z,9.90
2022-12-22T18:28:34.969Z,10.20
2022-12-22T18:31:05.608Z,10.10
2022-12-22T18:33:33.702Z,10.10
2022-12-22T18:36:01.921Z,10.10
2022-12-22T18:38:32.879Z,10.00
2022-12-22T18:41:01.317Z,9.90
2022-12-22T18:43:29.391Z,9.90
2022-12-22T18:45:57.383Z,9.80
2022-12-22T18:48:26.747Z,9.90
2022-12-22T18:50:54.771Z,9.80
2022-12-22T18:53:30.107Z,9.80
2022-12-22T18:55:59.096Z,9.70
2022-12-22T18:58:27.791Z,9.50
2022-12-22T19:00:56.962Z,9.60
2022-12-22T19:03:29.166Z,9.60
2022-12-22T19:05:57.819Z,9.60
2022-12-22T19:08:28.467Z,9.80
2022-12-22T19:11:00.277Z,10.00
2022-12-22T19:13:33.358Z,10.20
2022-12-22T19:16:03.336Z,10.30
2022-12-22T19:18:32.706Z,10.10
2022-12-22T19:21:00.762Z,10.00
2022-12-22T19:23:28.808Z,9.90
2022-12-22T19:26:08.026Z,10.00
2022-12-22T19:28:40.328Z,9.90
2022-12-22T19:31:10.160Z,9.90
2022-12-22T19:33:42.670Z,9.40
2022-12-22T19:36:18.810Z,9.40
2022-12-22T19:38:50.507Z,9.10
2022-12-22T19:41:32.731Z,9.10
2022-12-22T19:44:01.690Z,9.20
2022-12-22T19:46:34.100Z,9.20
2022-12-22T19:49:03.487Z,9.40
2022-12-22T19:51:32.372Z,9.30
2022-12-22T19:54:00.402Z,9.40
2022-12-22T19:56:30.760Z,9.40
2022-12-22T19:59:01.157Z,9.40
2022-12-22T20:01:29.312Z,9.50
2022-12-22T20:03:57.462Z,9.50
2022-12-22T20:06:29.738Z,9.60
2022-12-22T20:09:01.575Z,9.70
2022-12-22T20:11:29.748Z,9.70
2022-12-22T20:13:57.838Z,9.80
2022-12-22T20:16:25.899Z,9.80
2022-12-22T20:18:53.885Z,9.60
2022-12-22T20:21:27.686Z,9.60
2022-12-22T20:24:00.632Z,9.80
2022-12-22T20:26:32.458Z,9.60
2022-12-22T20:29:00.505Z,9.50
2022-12-22T20:31:28.501Z,9.60
2022-12-22T20:33:56.553Z,9.60
2022-12-22T20:36:27.660Z,9.60
2022-12-22T20:39:00.748Z,9.50
2022-12-22T20:41:29.058Z,9.60
2022-12-22T20:43:57.277Z,9.70
2022-12-22T20:46:27.634Z,9.70
2022-12-22T20:48:59.032Z,9.60
2022-12-22T20:51:29.914Z,9.80
2022-12-22T20:54:01.665Z,9.80
2022-12-22T20:56:33.478Z,9.60
2022-12-22T20:59:11.365Z,9.60
2022-12-22T21:01:39.504Z,9.80
2022-12-22T21:04:07.666Z,9.80
2022-12-22T21:06:38.658Z,9.80
2022-12-22T21:09:07.997Z,9.80
2022-12-22T21:11:36.068Z,10.00
2022-12-22T21:14:04.137Z,10.00
2022-12-22T21:16:34.230Z,10.20
2022-12-22T21:19:03.023Z,10.10
2022-12-22T21:21:31.316Z,9.90
2022-12-22T21:23:59.628Z,10.00
2022-12-22T21:26:34.940Z,10.00
2022-12-22T21:29:07.231Z,9.90
2022-12-22T21:31:35.564Z,9.80
2022-12-22T21:34:03.536Z,9.80
2022-12-22T21:36:35.001Z,9.80
2022-12-22T21:39:11.024Z,9.70
2022-12-22T21:41:57.743Z,9.70
2022-12-22T21:44:25.736Z,9.80
2022-12-22T21:46:54.618Z,9.80
2022-12-22T21:49:26.321Z,9.80
2022-12-22T21:51:55.705Z,9.70
2022-12-22T21:54:25.982Z,9.80
2022-12-22T21:56:55.891Z,9.90
2022-12-22T21:59:24.471Z,10.00
2022-12-22T22:01:53.405Z,10.10
2022-12-22T22:04:21.994Z,10.10
2022-12-22T22:06:50.067Z,9.90
2022-12-22T22:09:18.171Z,10.10
2022-12-22T22:12:03.982Z,10.20
2022-12-22T22:14:33.371Z,10.20
2022-12-22T22:17:01.464Z,10.00
2022-12-22T22:19:29.487Z,10.10
2022-12-22T22:21:57.502Z,10.30
2022-12-22T22:24:25.522Z,10.00
2022-12-22T22:26:55.756Z,10.10
2022-12-22T22:29:23.852Z,10.00
2022-12-22T22:31:55.624Z,10.00
2022-12-22T22:34:23.603Z,10.00
2022-12-22T22:36:52.559Z,9.90
2022-12-22T22:39:20.551Z,10.00
2022-12-22T22:41:48.600Z,9.90
2022-12-22T22:44:16.717Z,9.90
2022-12-22T22:46:44.846Z,9.80
2022-12-22T22:49:14.314Z,9.80
2022-12-22T22:51:42.282Z,9.70
2022-12-22T22:54:13.026Z,9.70
2022-12-22T22:56:41.137Z,9.80
2022-12-22T22:59:11.680Z,9.80
2022-12-22T23:01:40.793Z,9.60
2022-12-22T23:04:09.180Z,9.80
2022-12-22T23:06:41.596Z,9.90
2022-12-22T23:09:09.911Z,9.80
2022-12-22T23:11:37.954Z,9.80
2022-12-22T23:14:06.259Z,9.70
2022-12-22T23:16:38.302Z,9.80
2022-12-22T23:19:07.423Z,9.70
2022-12-22T23:21:35.868Z,9.70
2022-12-22T23:24:05.912Z,9.80
2022-12-22T23:26:33.891Z,9.70
2022-12-22T23:29:03.925Z,9.60
2022-12-22T23:31:32.648Z,9.70
2022-12-22T23:34:00.914Z,9.70
2022-12-22T23:36:29.140Z,9.70
2022-12-22T23:38:57.413Z,9.60
2022-12-22T23:41:26.913Z,9.50
2022-12-22T23:43:55.371Z,9.40
2022-12-22T23:46:23.883Z,9.70
2022-12-22T23:48:53.830Z,10.00
2022-12-22T23:51:23.590Z,9.90
2022-12-22T23:53:51.653Z,9.90
2022-12-22T23:56:20.052Z,9.90
2022-12-22T23:58:54.398Z,10.00
